sensor_id;sensor_type;location;lat;lon;timestamp;temperature;humidity
60033;DHT22;45905;50.570;10.428;2023-07-13T00:01:54;20.60;63.20
60033;DHT22;45905;50.570;10.428;2023-07-13T00:04:23;20.30;63.90
60033;DHT22;45905;50.570;10.428;2023-07-13T00:06:56;20.50;64.90
60033;DHT22;45905;50.570;10.428;2023-07-13T00:09:24;20.30;64.00
60033;DHT22;45905;50.570;10.428;2023-07-13T00:11:55;20.40;63.50
60033;DHT22;45905;50.570;10.428;2023-07-13T00:14:25;20.30;63.10
60033;DHT22;45905;50.570;10.428;2023-07-13T00:16:55;20.20;62.80
60033;DHT22;45905;50.570;10.428;2023-07-13T00:19:22;16.50;59.30
60033;DHT22;45905;50.570;10.428;2023-07-13T00:21:49;20.10;62.60
60033;DHT22;45905;50.570;10.428;2023-07-13T00:24:18;20.10;62.80
60033;DHT22;45905;50.570;10.428;2023-07-13T00:26:51;20.10;62.80
60033;DHT22;45905;50.570;10.428;2023-07-13T00:29:18;19.80;62.50
60033;DHT22;45905;50.570;10.428;2023-07-13T00:31:48;19.80;62.70
60033;DHT22;45905;50.570;10.428;2023-07-13T00:34:16;19.60;63.90
60033;DHT22;45905;50.570;10.428;2023-07-13T00:36:43;19.80;65.50
60033;DHT22;45905;50.570;10.428;2023-07-13T00:39:10;19.70;65.30
60033;DHT22;45905;50.570;10.428;2023-07-13T00:41:37;19.80;65.60
60033;DHT22;45905;50.570;10.428;2023-07-13T00:44:04;19.70;64.40
60033;DHT22;45905;50.570;10.428;2023-07-13T00:46:33;19.80;64.30
60033;DHT22;45905;50.570;10.428;2023-07-13T00:49:08;19.60;64.30
60033;DHT22;45905;50.570;10.428;2023-07-13T00:51:58;19.50;64.40
60033;DHT22;45905;50.570;10.428;2023-07-13T00:54:35;19.60;64.20
60033;DHT22;45905;50.570;10.428;2023-07-13T00:57:09;19.50;64.20
60033;DHT22;45905;50.570;10.428;2023-07-13T00:59:46;19.30;65.30
60033;DHT22;45905;50.570;10.428;2023-07-13T01:02:16;19.30;65.00
60033;DHT22;45905;50.570;10.428;2023-07-13T01:04:43;19.40;65.40
60033;DHT22;45905;50.570;10.428;2023-07-13T01:07:11;19.30;65.50
60033;DHT22;45905;50.570;10.428;2023-07-13T01:09:39;19.10;64.80
60033;DHT22;45905;50.570;10.428;2023-07-13T01:12:07;19.00;64.50
60033;DHT22;45905;50.570;10.428;2023-07-13T01:14:35;19.10;64.70
60033;DHT22;45905;50.570;10.428;2023-07-13T01:17:03;19.00;64.80
60033;DHT22;45905;50.570;10.428;2023-07-13T01:19:41;18.80;64.60
60033;DHT22;45905;50.570;10.428;2023-07-13T01:22:16;18.80;64.90
60033;DHT22;45905;50.570;10.428;2023-07-13T01:24:48;18.80;65.20
60033;DHT22;45905;50.570;10.428;2023-07-13T01:27:20;18.80;65.60
60033;DHT22;45905;50.570;10.428;2023-07-13T01:29:53;18.70;65.30
60033;DHT22;45905;50.570;10.428;2023-07-13T01:32:30;18.70;65.20
60033;DHT22;45905;50.570;10.428;2023-07-13T01:35:01;18.60;65.70
60033;DHT22;45905;50.570;10.428;2023-07-13T01:37:28;18.20;66.20
60033;DHT22;45905;50.570;10.428;2023-07-13T01:40:00;18.70;67.20
60033;DHT22;45905;50.570;10.428;2023-07-13T01:42:30;18.60;68.70
60033;DHT22;45905;50.570;10.428;2023-07-13T01:44:57;18.40;67.70
60033;DHT22;45905;50.570;10.428;2023-07-13T01:47:24;18.50;67.60
60033;DHT22;45905;50.570;10.428;2023-07-13T01:49:53;18.40;67.20
60033;DHT22;45905;50.570;10.428;2023-07-13T01:52:20;18.40;67.20
60033;DHT22;45905;50.570;10.428;2023-07-13T01:54:47;18.10;66.30
60033;DHT22;45905;50.570;10.428;2023-07-13T01:57:16;18.60;66.80
60033;DHT22;45905;50.570;10.428;2023-07-13T01:59:43;18.30;67.30
60033;DHT22;45905;50.570;10.428;2023-07-13T02:02:11;18.30;67.00
60033;DHT22;45905;50.570;10.428;2023-07-13T02:04:38;18.20;67.90
60033;DHT22;45905;50.570;10.428;2023-07-13T02:07:05;18.20;67.40
60033;DHT22;45905;50.570;10.428;2023-07-13T02:09:32;18.30;67.50
60033;DHT22;45905;50.570;10.428;2023-07-13T02:12:00;18.00;67.00
60033;DHT22;45905;50.570;10.428;2023-07-13T02:14:32;18.20;69.50
60033;DHT22;45905;50.570;10.428;2023-07-13T02:16:59;17.90;69.50
60033;DHT22;45905;50.570;10.428;2023-07-13T02:19:27;17.90;70.30
60033;DHT22;45905;50.570;10.428;2023-07-13T02:21:54;17.90;69.10
60033;DHT22;45905;50.570;10.428;2023-07-13T02:24:21;17.90;68.80
60033;DHT22;45905;50.570;10.428;2023-07-13T02:26:48;17.80;69.30
60033;DHT22;45905;50.570;10.428;2023-07-13T02:29:15;17.90;70.20
60033;DHT22;45905;50.570;10.428;2023-07-13T02:31:45;17.70;69.70
60033;DHT22;45905;50.570;10.428;2023-07-13T02:34:12;17.70;70.80
60033;DHT22;45905;50.570;10.428;2023-07-13T02:36:39;17.70;70.30
60033;DHT22;45905;50.570;10.428;2023-07-13T02:39:07;17.70;69.70
60033;DHT22;45905;50.570;10.428;2023-07-13T02:41:35;17.60;71.40
60033;DHT22;45905;50.570;10.428;2023-07-13T02:44:02;17.60;72.30
60033;DHT22;45905;50.570;10.428;2023-07-13T02:46:35;17.70;71.80
60033;DHT22;45905;50.570;10.428;2023-07-13T02:49:04;17.70;71.50
60033;DHT22;45905;50.570;10.428;2023-07-13T02:51:32;17.50;71.70
60033;DHT22;45905;50.570;10.428;2023-07-13T02:54:02;17.40;71.30
60033;DHT22;45905;50.570;10.428;2023-07-13T02:56:32;17.40;71.60
60033;DHT22;45905;50.570;10.428;2023-07-13T02:58:59;17.40;72.00
60033;DHT22;45905;50.570;10.428;2023-07-13T03:01:26;17.50;72.20
60033;DHT22;45905;50.570;10.428;2023-07-13T03:03:54;17.30;72.10
60033;DHT22;45905;50.570;10.428;2023-07-13T03:06:21;17.30;72.60
60033;DHT22;45905;50.570;10.428;2023-07-13T03:08:52;17.60;73.70
60033;DHT22;45905;50.570;10.428;2023-07-13T03:11:22;17.30;73.50
60033;DHT22;45905;50.570;10.428;2023-07-13T03:14:00;17.30;74.80
60033;DHT22;45905;50.570;10.428;2023-07-13T03:16:31;17.10;74.30
60033;DHT22;45905;50.570;10.428;2023-07-13T03:18:58;17.20;74.20
60033;DHT22;45905;50.570;10.428;2023-07-13T03:21:26;16.90;73.20
60033;DHT22;45905;50.570;10.428;2023-07-13T03:23:54;17.10;73.10
60033;DHT22;45905;50.570;10.428;2023-07-13T03:26:21;17.20;72.80
60033;DHT22;45905;50.570;10.428;2023-07-13T03:28:48;17.10;73.50
60033;DHT22;45905;50.570;10.428;2023-07-13T03:31:22;16.90;74.50
60033;DHT22;45905;50.570;10.428;2023-07-13T03:33:52;16.80;73.90
60033;DHT22;45905;50.570;10.428;2023-07-13T03:36:21;17.10;72.90
60033;DHT22;45905;50.570;10.428;2023-07-13T03:38:56;16.50;73.10
60033;DHT22;45905;50.570;10.428;2023-07-13T03:41:32;16.70;73.90
60033;DHT22;45905;50.570;10.428;2023-07-13T03:43:59;16.50;73.20
60033;DHT22;45905;50.570;10.428;2023-07-13T03:46:27;16.60;73.60
60033;DHT22;45905;50.570;10.428;2023-07-13T03:48:54;17.00;72.60
60033;DHT22;45905;50.570;10.428;2023-07-13T03:51:21;16.90;72.70
60033;DHT22;45905;50.570;10.428;2023-07-13T03:53:48;16.60;72.20
60033;DHT22;45905;50.570;10.428;2023-07-13T03:56:18;16.50;73.40
60033;DHT22;45905;50.570;10.428;2023-07-13T03:58:48;16.50;72.70
60033;DHT22;45905;50.570;10.428;2023-07-13T04:01:20;16.50;72.70
60033;DHT22;45905;50.570;10.428;2023-07-13T04:03:49;16.90;73.50
60033;DHT22;45905;50.570;10.428;2023-07-13T04:06:19;16.80;73.40
60033;DHT22;45905;50.570;10.428;2023-07-13T04:08:55;16.40;73.80
60033;DHT22;45905;50.570;10.428;2023-07-13T04:11:26;16.00;75.70
60033;DHT22;45905;50.570;10.428;2023-07-13T04:13:55;16.00;76.20
60033;DHT22;45905;50.570;10.428;2023-07-13T04:16:23;16.10;76.80
60033;DHT22;45905;50.570;10.428;2023-07-13T04:18:51;16.40;76.50
60033;DHT22;45905;50.570;10.428;2023-07-13T04:21:27;16.30;76.50
60033;DHT22;45905;50.570;10.428;2023-07-13T04:23:55;16.40;76.50
60033;DHT22;45905;50.570;10.428;2023-07-13T04:26:23;16.30;76.40
60033;DHT22;45905;50.570;10.428;2023-07-13T04:28:51;16.20;77.10
60033;DHT22;45905;50.570;10.428;2023-07-13T04:31:19;15.90;77.20
60033;DHT22;45905;50.570;10.428;2023-07-13T04:33:46;16.10;77.00
60033;DHT22;45905;50.570;10.428;2023-07-13T04:36:15;16.20;77.30
60033;DHT22;45905;50.570;10.428;2023-07-13T04:38:43;16.30;78.40
60033;DHT22;45905;50.570;10.428;2023-07-13T04:41:14;16.20;77.80
60033;DHT22;45905;50.570;10.428;2023-07-13T04:43:42;16.00;77.90
60033;DHT22;45905;50.570;10.428;2023-07-13T04:46:12;16.10;78.50
60033;DHT22;45905;50.570;10.428;2023-07-13T04:48:42;16.20;79.20
60033;DHT22;45905;50.570;10.428;2023-07-13T04:51:10;16.20;79.90
60033;DHT22;45905;50.570;10.428;2023-07-13T04:53:38;16.20;79.70
60033;DHT22;45905;50.570;10.428;2023-07-13T04:56:05;16.30;80.40
60033;DHT22;45905;50.570;10.428;2023-07-13T04:58:33;16.30;80.50
60033;DHT22;45905;50.570;10.428;2023-07-13T05:01:05;16.40;80.80
60033;DHT22;45905;50.570;10.428;2023-07-13T05:03:33;16.50;80.80
60033;DHT22;45905;50.570;10.428;2023-07-13T05:06:04;16.40;80.40
60033;DHT22;45905;50.570;10.428;2023-07-13T05:08:33;16.50;80.10
60033;DHT22;45905;50.570;10.428;2023-07-13T05:11:02;16.50;80.30
60033;DHT22;45905;50.570;10.428;2023-07-13T05:13:30;16.40;81.10
60033;DHT22;45905;50.570;10.428;2023-07-13T05:16:00;16.60;81.90
60033;DHT22;45905;50.570;10.428;2023-07-13T05:18:29;16.70;82.10
60033;DHT22;45905;50.570;10.428;2023-07-13T05:21:08;16.70;82.40
60033;DHT22;45905;50.570;10.428;2023-07-13T05:23:38;16.90;82.60
60033;DHT22;45905;50.570;10.428;2023-07-13T05:26:08;16.90;82.00
60033;DHT22;45905;50.570;10.428;2023-07-13T05:28:36;16.80;82.30
60033;DHT22;45905;50.570;10.428;2023-07-13T05:31:04;17.10;82.00
60033;DHT22;45905;50.570;10.428;2023-07-13T05:33:33;17.00;83.10
60033;DHT22;45905;50.570;10.428;2023-07-13T05:36:01;16.90;82.50
60033;DHT22;45905;50.570;10.428;2023-07-13T05:38:28;16.90;82.50
60033;DHT22;45905;50.570;10.428;2023-07-13T05:40:57;17.00;82.60
60033;DHT22;45905;50.570;10.428;2023-07-13T05:43:24;16.70;81.30
60033;DHT22;45905;50.570;10.428;2023-07-13T05:45:56;17.10;82.50
60033;DHT22;45905;50.570;10.428;2023-07-13T05:48:24;17.20;82.40
60033;DHT22;45905;50.570;10.428;2023-07-13T05:50:51;17.20;82.20
60033;DHT22;45905;50.570;10.428;2023-07-13T05:53:18;17.30;82.30
60033;DHT22;45905;50.570;10.428;2023-07-13T05:55:46;17.30;82.00
60033;DHT22;45905;50.570;10.428;2023-07-13T05:58:14;17.40;81.90
60033;DHT22;45905;50.570;10.428;2023-07-13T06:00:41;17.40;82.30
60033;DHT22;45905;50.570;10.428;2023-07-13T06:03:09;17.60;83.80
60033;DHT22;45905;50.570;10.428;2023-07-13T06:05:37;17.70;83.30
60033;DHT22;45905;50.570;10.428;2023-07-13T06:08:06;17.70;81.80
60033;DHT22;45905;50.570;10.428;2023-07-13T06:10:35;17.80;80.50
60033;DHT22;45905;50.570;10.428;2023-07-13T06:13:03;18.10;80.20
60033;DHT22;45905;50.570;10.428;2023-07-13T06:15:30;18.00;80.00
60033;DHT22;45905;50.570;10.428;2023-07-13T06:17:57;18.00;79.20
60033;DHT22;45905;50.570;10.428;2023-07-13T06:20:25;19.20;79.60
60033;DHT22;45905;50.570;10.428;2023-07-13T06:22:55;18.00;78.20
60033;DHT22;45905;50.570;10.428;2023-07-13T06:25:22;18.10;78.10
60033;DHT22;45905;50.570;10.428;2023-07-13T06:27:50;18.10;77.70
60033;DHT22;45905;50.570;10.428;2023-07-13T06:30:17;18.00;77.40
60033;DHT22;45905;50.570;10.428;2023-07-13T06:32:44;18.10;76.80
60033;DHT22;45905;50.570;10.428;2023-07-13T06:35:11;18.10;77.10
60033;DHT22;45905;50.570;10.428;2023-07-13T06:37:40;17.70;76.00
60033;DHT22;45905;50.570;10.428;2023-07-13T06:40:08;18.20;76.90
60033;DHT22;45905;50.570;10.428;2023-07-13T06:42:35;18.30;77.90
60033;DHT22;45905;50.570;10.428;2023-07-13T06:45:03;18.30;78.00
60033;DHT22;45905;50.570;10.428;2023-07-13T06:47:30;18.60;77.40
60033;DHT22;45905;50.570;10.428;2023-07-13T06:50:00;15.90;77.20
60033;DHT22;45905;50.570;10.428;2023-07-13T06:52:28;18.50;77.10
60033;DHT22;45905;50.570;10.428;2023-07-13T06:54:55;18.80;77.30
60033;DHT22;45905;50.570;10.428;2023-07-13T06:57:22;18.70;76.90
60033;DHT22;45905;50.570;10.428;2023-07-13T06:59:49;18.60;77.30
60033;DHT22;45905;50.570;10.428;2023-07-13T07:02:16;18.80;77.10
60033;DHT22;45905;50.570;10.428;2023-07-13T07:04:44;18.60;76.50
60033;DHT22;45905;50.570;10.428;2023-07-13T07:07:11;18.90;76.40
60033;DHT22;45905;50.570;10.428;2023-07-13T07:09:38;19.00;77.30
60033;DHT22;45905;50.570;10.428;2023-07-13T07:12:05;18.90;76.90
60033;DHT22;45905;50.570;10.428;2023-07-13T07:14:33;19.00;72.80
60033;DHT22;45905;50.570;10.428;2023-07-13T07:17:01;19.00;71.50
60033;DHT22;45905;50.570;10.428;2023-07-13T07:19:30;19.10;69.90
60033;DHT22;45905;50.570;10.428;2023-07-13T07:21:57;19.20;69.00
60033;DHT22;45905;50.570;10.428;2023-07-13T07:24:25;19.20;67.20
60033;DHT22;45905;50.570;10.428;2023-07-13T07:26:52;18.80;65.20
60033;DHT22;45905;50.570;10.428;2023-07-13T07:29:22;19.40;66.60
60033;DHT22;45905;50.570;10.428;2023-07-13T07:31:54;20.20;65.30
60033;DHT22;45905;50.570;10.428;2023-07-13T07:34:24;19.40;61.80
60033;DHT22;45905;50.570;10.428;2023-07-13T07:36:53;19.30;61.50
60033;DHT22;45905;50.570;10.428;2023-07-13T07:39:23;19.70;58.20
60033;DHT22;45905;50.570;10.428;2023-07-13T07:41:51;19.00;58.50
60033;DHT22;45905;50.570;10.428;2023-07-13T07:44:21;20.50;61.00
60033;DHT22;45905;50.570;10.428;2023-07-13T07:46:48;19.90;58.40
60033;DHT22;45905;50.570;10.428;2023-07-13T07:49:16;19.70;58.20
60033;DHT22;45905;50.570;10.428;2023-07-13T07:51:43;19.50;56.40
60033;DHT22;45905;50.570;10.428;2023-07-13T07:54:10;20.10;57.20
60033;DHT22;45905;50.570;10.428;2023-07-13T07:56:52;19.90;57.40
60033;DHT22;45905;50.570;10.428;2023-07-13T08:01:53;19.60;56.20
60033;DHT22;45905;50.570;10.428;2023-07-13T08:04:23;20.20;56.60
60033;DHT22;45905;50.570;10.428;2023-07-13T08:06:53;20.10;56.10
60033;DHT22;45905;50.570;10.428;2023-07-13T08:09:20;19.80;55.80
60033;DHT22;45905;50.570;10.428;2023-07-13T08:11:47;19.50;55.70
60033;DHT22;45905;50.570;10.428;2023-07-13T08:26:37;20.00;56.40
60033;DHT22;45905;50.570;10.428;2023-07-13T08:29:04;19.80;55.60
60033;DHT22;45905;50.570;10.428;2023-07-13T08:36:28;20.50;55.20
60033;DHT22;45905;50.570;10.428;2023-07-13T08:38:56;19.70;54.90
60033;DHT22;45905;50.570;10.428;2023-07-13T08:41:23;20.40;56.40
60033;DHT22;45905;50.570;10.428;2023-07-13T08:43:56;20.50;56.00
60033;DHT22;45905;50.570;10.428;2023-07-13T08:46:45;20.40;55.00
60033;DHT22;45905;50.570;10.428;2023-07-13T08:49:22;20.50;55.10
60033;DHT22;45905;50.570;10.428;2023-07-13T08:51:58;20.00;55.20
60033;DHT22;45905;50.570;10.428;2023-07-13T08:54:37;20.60;55.90
60033;DHT22;45905;50.570;10.428;2023-07-13T08:57:20;20.60;54.60
60033;DHT22;45905;50.570;10.428;2023-07-13T09:05:29;20.80;55.10
60033;DHT22;45905;50.570;10.428;2023-07-13T09:10:49;20.90;54.90
60033;DHT22;45905;50.570;10.428;2023-07-13T09:13:45;20.90;55.00
60033;DHT22;45905;50.570;10.428;2023-07-13T09:18:48;21.00;55.80
60033;DHT22;45905;50.570;10.428;2023-07-13T09:21:25;21.10;55.20
60033;DHT22;45905;50.570;10.428;2023-07-13T09:24:01;21.20;54.50
60033;DHT22;45905;50.570;10.428;2023-07-13T09:29:27;21.30;55.40
60033;DHT22;45905;50.570;10.428;2023-07-13T09:32:00;21.50;55.30
60033;DHT22;45905;50.570;10.428;2023-07-13T09:39:39;21.70;53.10
60033;DHT22;45905;50.570;10.428;2023-07-13T09:42:18;21.80;53.60
60033;DHT22;45905;50.570;10.428;2023-07-13T09:44:59;22.20;65.60
60033;DHT22;45905;50.570;10.428;2023-07-13T09:47:32;21.90;53.50
60033;DHT22;45905;50.570;10.428;2023-07-13T09:50:10;22.00;52.60
60033;DHT22;45905;50.570;10.428;2023-07-13T09:52:48;21.80;53.00
60033;DHT22;45905;50.570;10.428;2023-07-13T09:55:35;22.10;52.10
60033;DHT22;45905;50.570;10.428;2023-07-13T09:58:13;22.10;51.80
60033;DHT22;45905;50.570;10.428;2023-07-13T10:00:44;22.10;53.00
60033;DHT22;45905;50.570;10.428;2023-07-13T10:03:29;22.20;52.30
60033;DHT22;45905;50.570;10.428;2023-07-13T10:06:17;22.30;52.60
60033;DHT22;45905;50.570;10.428;2023-07-13T10:08:46;22.40;52.60
60033;DHT22;45905;50.570;10.428;2023-07-13T10:11:23;22.40;51.40
60033;DHT22;45905;50.570;10.428;2023-07-13T10:16:25;22.50;51.30
60033;DHT22;45905;50.570;10.428;2023-07-13T10:19:11;22.50;51.40
60033;DHT22;45905;50.570;10.428;2023-07-13T10:21:55;22.50;51.80
60033;DHT22;45905;50.570;10.428;2023-07-13T10:24:35;22.60;50.30
60033;DHT22;45905;50.570;10.428;2023-07-13T10:27:19;22.20;49.80
60033;DHT22;45905;50.570;10.428;2023-07-13T10:30:40;22.80;51.00
60033;DHT22;45905;50.570;10.428;2023-07-13T10:33:04;23.20;50.90
60033;DHT22;45905;50.570;10.428;2023-07-13T10:35:43;23.40;50.60
60033;DHT22;45905;50.570;10.428;2023-07-13T10:38:18;23.20;50.30
60033;DHT22;45905;50.570;10.428;2023-07-13T10:43:31;23.30;50.20
60033;DHT22;45905;50.570;10.428;2023-07-13T10:46:06;23.40;49.90
60033;DHT22;45905;50.570;10.428;2023-07-13T10:48:35;23.60;49.00
60033;DHT22;45905;50.570;10.428;2023-07-13T10:51:05;23.60;49.40
60033;DHT22;45905;50.570;10.428;2023-07-13T10:53:36;23.90;48.60
60033;DHT22;45905;50.570;10.428;2023-07-13T10:56:19;24.40;48.40
60033;DHT22;45905;50.570;10.428;2023-07-13T10:59:12;24.10;49.00
60033;DHT22;45905;50.570;10.428;2023-07-13T11:01:58;23.60;48.10
60033;DHT22;45905;50.570;10.428;2023-07-13T11:04:45;24.10;47.50
60033;DHT22;45905;50.570;10.428;2023-07-13T11:07:29;23.80;47.50
60033;DHT22;45905;50.570;10.428;2023-07-13T11:10:04;23.80;47.10
60033;DHT22;45905;50.570;10.428;2023-07-13T11:12:53;23.80;48.00
60033;DHT22;45905;50.570;10.428;2023-07-13T11:15:43;24.10;46.80
60033;DHT22;45905;50.570;10.428;2023-07-13T11:18:23;23.60;46.00
60033;DHT22;45905;50.570;10.428;2023-07-13T11:20:52;23.30;46.40
60033;DHT22;45905;50.570;10.428;2023-07-13T11:24:16;24.00;48.30
60033;DHT22;45905;50.570;10.428;2023-07-13T11:31:56;23.90;47.70
60033;DHT22;45905;50.570;10.428;2023-07-13T11:34:36;23.90;46.70
60033;DHT22;45905;50.570;10.428;2023-07-13T11:37:12;24.00;47.30
60033;DHT22;45905;50.570;10.428;2023-07-13T11:39:43;24.10;47.00
60033;DHT22;45905;50.570;10.428;2023-07-13T11:42:16;24.20;47.40
60033;DHT22;45905;50.570;10.428;2023-07-13T11:44:47;24.00;47.30
60033;DHT22;45905;50.570;10.428;2023-07-13T11:47:40;24.20;46.90
60033;DHT22;45905;50.570;10.428;2023-07-13T11:50:21;24.40;47.40
60033;DHT22;45905;50.570;10.428;2023-07-13T11:52:52;24.40;46.60
60033;DHT22;45905;50.570;10.428;2023-07-13T11:55:22;24.20;46.00
60033;DHT22;45905;50.570;10.428;2023-07-13T11:57:56;24.50;46.00
60033;DHT22;45905;50.570;10.428;2023-07-13T12:00:29;24.10;45.40
60033;DHT22;45905;50.570;10.428;2023-07-13T12:03:02;24.30;46.10
60033;DHT22;45905;50.570;10.428;2023-07-13T12:05:32;24.30;46.60
60033;DHT22;45905;50.570;10.428;2023-07-13T12:07:59;24.30;46.20
60033;DHT22;45905;50.570;10.428;2023-07-13T12:10:59;24.30;45.50
60033;DHT22;45905;50.570;10.428;2023-07-13T12:13:36;24.20;44.60
60033;DHT22;45905;50.570;10.428;2023-07-13T12:16:14;24.60;45.50
60033;DHT22;45905;50.570;10.428;2023-07-13T12:18:44;24.40;43.40
60033;DHT22;45905;50.570;10.428;2023-07-13T12:21:16;24.40;43.50
60033;DHT22;45905;50.570;10.428;2023-07-13T12:23:48;24.50;44.30
60033;DHT22;45905;50.570;10.428;2023-07-13T12:26:17;24.30;44.70
60033;DHT22;45905;50.570;10.428;2023-07-13T12:28:51;24.60;43.50
60033;DHT22;45905;50.570;10.428;2023-07-13T12:31:30;24.90;43.00
60033;DHT22;45905;50.570;10.428;2023-07-13T12:34:12;24.80;43.70
60033;DHT22;45905;50.570;10.428;2023-07-13T12:36:56;25.10;43.80
60033;DHT22;45905;50.570;10.428;2023-07-13T12:39:34;25.10;44.20
60033;DHT22;45905;50.570;10.428;2023-07-13T12:42:33;24.50;43.10
60033;DHT22;45905;50.570;10.428;2023-07-13T12:45:05;25.20;43.40
60033;DHT22;45905;50.570;10.428;2023-07-13T12:47:49;25.30;44.10
60033;DHT22;45905;50.570;10.428;2023-07-13T12:50:42;24.90;40.50
60033;DHT22;45905;50.570;10.428;2023-07-13T12:53:15;25.20;40.90
60033;DHT22;45905;50.570;10.428;2023-07-13T12:55:54;25.60;41.10
60033;DHT22;45905;50.570;10.428;2023-07-13T12:58:29;25.80;41.30
60033;DHT22;45905;50.570;10.428;2023-07-13T13:01:01;25.20;40.10
60033;DHT22;45905;50.570;10.428;2023-07-13T13:06:26;26.00;39.90
60033;DHT22;45905;50.570;10.428;2023-07-13T13:08:58;25.50;39.20
60033;DHT22;45905;50.570;10.428;2023-07-13T13:11:29;25.90;39.00
60033;DHT22;45905;50.570;10.428;2023-07-13T13:13:57;26.20;38.50
60033;DHT22;45905;50.570;10.428;2023-07-13T13:16:37;26.00;38.80
60033;DHT22;45905;50.570;10.428;2023-07-13T13:19:26;26.40;37.50
60033;DHT22;45905;50.570;10.428;2023-07-13T13:21:56;26.30;38.10
60033;DHT22;45905;50.570;10.428;2023-07-13T13:24:26;26.10;39.10
60033;DHT22;45905;50.570;10.428;2023-07-13T13:26:55;26.20;38.00
60033;DHT22;45905;50.570;10.428;2023-07-13T13:29:27;26.60;39.00
60033;DHT22;45905;50.570;10.428;2023-07-13T13:31:55;26.20;39.20
60033;DHT22;45905;50.570;10.428;2023-07-13T13:34:23;26.40;39.70
60033;DHT22;45905;50.570;10.428;2023-07-13T13:36:53;26.10;39.20
60033;DHT22;45905;50.570;10.428;2023-07-13T13:39:32;26.00;39.60
60033;DHT22;45905;50.570;10.428;2023-07-13T13:42:02;26.30;39.10
60033;DHT22;45905;50.570;10.428;2023-07-13T13:44:30;25.80;39.40
60033;DHT22;45905;50.570;10.428;2023-07-13T13:46:57;25.50;40.70
60033;DHT22;45905;50.570;10.428;2023-07-13T13:49:26;25.20;40.10
60033;DHT22;45905;50.570;10.428;2023-07-13T13:51:55;25.50;40.40
60033;DHT22;45905;50.570;10.428;2023-07-13T13:54:24;25.10;40.60
60033;DHT22;45905;50.570;10.428;2023-07-13T13:56:53;25.80;41.20
60033;DHT22;45905;50.570;10.428;2023-07-13T13:59:20;25.50;40.50
60033;DHT22;45905;50.570;10.428;2023-07-13T14:01:48;24.80;41.10
60033;DHT22;45905;50.570;10.428;2023-07-13T14:04:20;25.50;41.00
60033;DHT22;45905;50.570;10.428;2023-07-13T14:06:48;25.00;40.60
60033;DHT22;45905;50.570;10.428;2023-07-13T14:09:18;25.50;40.10
60033;DHT22;45905;50.570;10.428;2023-07-13T14:11:48;25.20;40.00
60033;DHT22;45905;50.570;10.428;2023-07-13T14:14:23;25.50;40.60
60033;DHT22;45905;50.570;10.428;2023-07-13T14:16:54;25.50;42.00
60033;DHT22;45905;50.570;10.428;2023-07-13T14:19:23;25.30;40.50
60033;DHT22;45905;50.570;10.428;2023-07-13T14:21:51;25.30;41.30
60033;DHT22;45905;50.570;10.428;2023-07-13T14:24:20;25.30;40.60
60033;DHT22;45905;50.570;10.428;2023-07-13T14:26:48;25.10;40.50
60033;DHT22;45905;50.570;10.428;2023-07-13T14:29:17;25.10;41.00
60033;DHT22;45905;50.570;10.428;2023-07-13T14:31:50;25.20;41.20
60033;DHT22;45905;50.570;10.428;2023-07-13T14:34:18;25.00;41.30
60033;DHT22;45905;50.570;10.428;2023-07-13T14:36:48;25.20;41.20
60033;DHT22;45905;50.570;10.428;2023-07-13T14:39:24;25.00;41.00
60033;DHT22;45905;50.570;10.428;2023-07-13T14:41:53;25.20;41.00
60033;DHT22;45905;50.570;10.428;2023-07-13T14:44:24;25.20;41.40
60033;DHT22;45905;50.570;10.428;2023-07-13T14:46:57;25.30;41.90
60033;DHT22;45905;50.570;10.428;2023-07-13T14:51:58;25.20;42.00
60033;DHT22;45905;50.570;10.428;2023-07-13T14:54:32;25.40;41.70
60033;DHT22;45905;50.570;10.428;2023-07-13T14:57:00;25.50;42.00
60033;DHT22;45905;50.570;10.428;2023-07-13T14:59:28;25.30;42.50
60033;DHT22;45905;50.570;10.428;2023-07-13T15:01:55;25.30;42.60
60033;DHT22;45905;50.570;10.428;2023-07-13T15:04:22;25.30;41.70
60033;DHT22;45905;50.570;10.428;2023-07-13T15:07:09;25.50;43.20
60033;DHT22;45905;50.570;10.428;2023-07-13T15:09:37;25.40;41.90
60033;DHT22;45905;50.570;10.428;2023-07-13T15:12:05;25.60;42.80
60033;DHT22;45905;50.570;10.428;2023-07-13T15:14:32;25.40;43.00
60033;DHT22;45905;50.570;10.428;2023-07-13T15:17:00;25.50;42.00
60033;DHT22;45905;50.570;10.428;2023-07-13T15:19:28;25.20;41.60
60033;DHT22;45905;50.570;10.428;2023-07-13T15:21:56;25.60;41.70
60033;DHT22;45905;50.570;10.428;2023-07-13T15:24:28;25.50;41.30
60033;DHT22;45905;50.570;10.428;2023-07-13T15:26:56;25.50;41.80
60033;DHT22;45905;50.570;10.428;2023-07-13T15:29:23;25.50;41.70
60033;DHT22;45905;50.570;10.428;2023-07-13T15:31:50;25.30;41.10
60033;DHT22;45905;50.570;10.428;2023-07-13T15:34:22;25.20;41.00
60033;DHT22;45905;50.570;10.428;2023-07-13T15:36:53;25.60;42.00
60033;DHT22;45905;50.570;10.428;2023-07-13T15:39:20;25.40;41.60
60033;DHT22;45905;50.570;10.428;2023-07-13T15:41:47;25.80;41.60
60033;DHT22;45905;50.570;10.428;2023-07-13T15:46:58;24.90;40.30
60033;DHT22;45905;50.570;10.428;2023-07-13T15:49:27;24.60;40.30
60033;DHT22;45905;50.570;10.428;2023-07-13T15:51:55;25.70;41.10
60033;DHT22;45905;50.570;10.428;2023-07-13T15:54:23;25.30;41.40
60033;DHT22;45905;50.570;10.428;2023-07-13T15:56:53;25.40;42.00
60033;DHT22;45905;50.570;10.428;2023-07-13T15:59:22;25.00;41.30
60033;DHT22;45905;50.570;10.428;2023-07-13T16:01:50;25.40;42.50
60033;DHT22;45905;50.570;10.428;2023-07-13T16:04:17;24.80;41.90
60033;DHT22;45905;50.570;10.428;2023-07-13T16:06:47;25.20;42.20
60033;DHT22;45905;50.570;10.428;2023-07-13T16:09:22;25.00;42.50
60033;DHT22;45905;50.570;10.428;2023-07-13T16:11:51;25.00;43.00
60033;DHT22;45905;50.570;10.428;2023-07-13T16:14:19;24.70;42.90
60033;DHT22;45905;50.570;10.428;2023-07-13T16:16:48;24.80;43.10
60033;DHT22;45905;50.570;10.428;2023-07-13T16:19:17;25.10;43.90
60033;DHT22;45905;50.570;10.428;2023-07-13T16:21:46;24.70;44.10
60033;DHT22;45905;50.570;10.428;2023-07-13T16:24:21;24.70;43.60
60033;DHT22;45905;50.570;10.428;2023-07-13T16:26:52;24.70;44.10
60033;DHT22;45905;50.570;10.428;2023-07-13T16:29:25;24.70;43.40
60033;DHT22;45905;50.570;10.428;2023-07-13T16:31:59;24.90;43.70
60033;DHT22;45905;50.570;10.428;2023-07-13T16:34:41;24.10;42.70
60033;DHT22;45905;50.570;10.428;2023-07-13T16:37:16;24.60;43.90
60033;DHT22;45905;50.570;10.428;2023-07-13T16:39:50;24.60;43.40